createdAt,value
2018-03-18T00:00:06.109Z,44.70
2018-03-18T00:02:38.817Z,44.00
2018-03-18T00:05:07.096Z,44.00
2018-03-18T00:07:35.387Z,44.20
2018-03-18T00:10:03.681Z,43.90
2018-03-18T00:12:32.027Z,43.70
2018-03-18T00:15:00.316Z,43.50
2018-03-18T00:17:28.634Z,43.40
2018-03-18T00:19:56.923Z,43.30
2018-03-18T00:22:25.192Z,43.10
2018-03-18T00:24:53.508Z,43.20
2018-03-18T00:27:21.797Z,43.20
2018-03-18T00:29:50.062Z,43.20
2018-03-18T00:32:18.388Z,44.50
2018-03-18T00:34:46.647Z,44.70
2018-03-18T00:37:14.960Z,44.90
2018-03-18T00:39:43.245Z,44.80
2018-03-18T00:42:11.525Z,44.50
2018-03-18T00:44:40.541Z,44.30
2018-03-18T00:47:09.941Z,43.80
2018-03-18T00:49:38.964Z,43.50
2018-03-18T00:52:07.248Z,43.60
2018-03-18T00:54:35.545Z,43.30
2018-03-18T00:57:03.855Z,43.50
2018-03-18T00:59:32.119Z,43.40
2018-03-18T01:02:00.391Z,43.20
2018-03-18T01:04:28.712Z,43.10
2018-03-18T01:06:56.990Z,43.10
2018-03-18T01:09:25.270Z,42.70
2018-03-18T01:11:53.604Z,42.60
2018-03-18T01:14:21.876Z,42.30
2018-03-18T01:16:50.198Z,42.20
2018-03-18T01:19:19.239Z,42.00
2018-03-18T01:21:47.580Z,42.00
2018-03-18T01:24:15.893Z,41.90
2018-03-18T01:26:44.191Z,41.90
2018-03-18T01:29:12.459Z,42.00
2018-03-18T01:31:40.766Z,42.10
2018-03-18T01:34:09.928Z,42.20
2018-03-18T01:36:38.244Z,42.20
2018-03-18T01:39:06.510Z,42.10
2018-03-18T01:41:34.782Z,41.90
2018-03-18T01:44:03.088Z,42.00
2018-03-18T01:46:32.125Z,42.10
2018-03-18T01:49:00.440Z,42.00
2018-03-18T01:51:28.717Z,41.70
2018-03-18T01:53:56.976Z,41.90
2018-03-18T01:56:25.345Z,41.70
2018-03-18T01:58:53.606Z,41.40
2018-03-18T02:01:21.932Z,41.30
2018-03-18T02:03:50.212Z,41.20
2018-03-18T02:06:18.482Z,41.20
2018-03-18T02:08:46.826Z,41.50
2018-03-18T02:11:15.097Z,41.60
2018-03-18T02:13:44.042Z,41.40
2018-03-18T02:16:12.334Z,41.10
2018-03-18T02:18:40.621Z,41.30
2018-03-18T02:21:09.682Z,41.00
2018-03-18T02:23:38.006Z,41.00
2018-03-18T02:26:06.287Z,41.00
2018-03-18T02:28:34.569Z,41.00
2018-03-18T02:31:02.934Z,41.10
2018-03-18T02:33:31.225Z,40.90
2018-03-18T02:35:59.489Z,40.70
2018-03-18T02:38:28.559Z,40.60
2018-03-18T02:40:56.838Z,40.60
2018-03-18T02:43:25.172Z,40.80
2018-03-18T02:45:53.445Z,40.70
2018-03-18T02:48:21.727Z,40.70
2018-03-18T02:50:50.050Z,40.70
2018-03-18T02:53:18.326Z,40.70
2018-03-18T02:55:46.599Z,41.20
2018-03-18T02:58:14.934Z,40.60
2018-03-18T03:00:43.202Z,40.50
2018-03-18T03:03:11.478Z,40.60
2018-03-18T03:05:39.798Z,40.60
2018-03-18T03:08:08.106Z,40.50
2018-03-18T03:10:36.361Z,40.60
2018-03-18T03:13:04.673Z,40.70
2018-03-18T03:15:32.941Z,40.60
2018-03-18T03:18:02.155Z,40.50
2018-03-18T03:20:30.426Z,40.50
2018-03-18T03:22:58.693Z,40.60
2018-03-18T03:25:27.770Z,40.50
2018-03-18T03:27:56.054Z,40.50
2018-03-18T03:30:24.387Z,40.40
2018-03-18T03:32:52.643Z,40.50
2018-03-18T03:35:20.927Z,40.50
2018-03-18T03:37:49.220Z,40.50
2018-03-18T03:40:17.492Z,40.30
2018-03-18T03:42:45.850Z,40.40
2018-03-18T03:45:14.884Z,40.10
2018-03-18T03:47:43.183Z,40.10
2018-03-18T03:50:11.480Z,40.30
2018-03-18T03:52:41.005Z,40.70
2018-03-18T03:55:09.318Z,40.00
2018-03-18T03:57:37.586Z,40.10
2018-03-18T04:00:05.909Z,40.30
2018-03-18T04:02:34.171Z,40.40
2018-03-18T04:05:02.448Z,40.20
2018-03-18T04:07:30.757Z,40.30
2018-03-18T04:09:59.030Z,40.20
2018-03-18T04:12:27.327Z,40.20
2018-03-18T04:14:56.419Z,39.90
2018-03-18T04:17:25.468Z,40.10
2018-03-18T04:19:53.768Z,40.10
2018-03-18T04:22:22.045Z,40.00
2018-03-18T04:24:50.307Z,39.80
2018-03-18T04:27:18.658Z,39.70
2018-03-18T04:29:46.925Z,39.60
2018-03-18T04:32:15.919Z,39.70
2018-03-18T04:34:44.222Z,39.70
2018-03-18T04:37:12.497Z,39.80
2018-03-18T04:39:40.821Z,39.70
2018-03-18T04:42:09.141Z,39.70
2018-03-18T04:44:37.417Z,39.50
2018-03-18T04:47:05.704Z,39.70
2018-03-18T04:49:33.975Z,39.60
2018-03-18T04:52:02.337Z,39.90
2018-03-18T04:54:30.566Z,39.60
2018-03-18T04:56:58.845Z,39.60
2018-03-18T04:59:27.139Z,39.60
2018-03-18T05:01:55.425Z,39.30
2018-03-18T05:04:23.721Z,39.10
2018-03-18T05:06:51.988Z,39.20
2018-03-18T05:09:21.016Z,39.50
2018-03-18T05:11:49.326Z,39.50
2018-03-18T05:14:17.597Z,39.40
2018-03-18T05:16:45.918Z,39.40
2018-03-18T05:19:14.240Z,39.20
2018-03-18T05:21:42.495Z,39.20
2018-03-18T05:24:10.800Z,39.20
2018-03-18T05:26:39.067Z,39.20
2018-03-18T05:29:07.445Z,39.30
2018-03-18T05:31:35.668Z,39.40
2018-03-18T05:34:03.936Z,39.40
2018-03-18T05:36:32.244Z,39.30
2018-03-18T05:39:01.290Z,39.40
2018-03-18T05:41:29.622Z,39.40
2018-03-18T05:43:57.870Z,39.60
2018-03-18T05:46:26.134Z,39.40
2018-03-18T05:48:54.438Z,39.40
2018-03-18T05:51:23.485Z,39.10
2018-03-18T05:53:51.824Z,39.10
2018-03-18T05:56:20.133Z,39.10
2018-03-18T05:58:48.364Z,39.20
2018-03-18T06:01:16.656Z,39.20
2018-03-18T06:03:45.706Z,39.10
2018-03-18T06:06:14.021Z,39.10
2018-03-18T06:08:42.281Z,38.90
2018-03-18T06:11:10.549Z,38.90
2018-03-18T06:13:38.898Z,39.00
2018-03-18T06:16:07.152Z,38.80
2018-03-18T06:18:35.475Z,38.70
2018-03-18T06:21:03.742Z,38.90
2018-03-18T06:23:32.017Z,38.70
2018-03-18T06:26:00.318Z,38.60
2018-03-18T06:28:28.583Z,38.40
2018-03-18T06:30:56.903Z,38.50
2018-03-18T06:33:25.957Z,38.50
2018-03-18T06:35:54.231Z,38.50
2018-03-18T06:38:22.539Z,38.60
2018-03-18T06:40:50.812Z,38.60
2018-03-18T06:43:19.135Z,38.70
2018-03-18T06:45:47.456Z,38.70
2018-03-18T06:48:15.742Z,38.40
2018-03-18T06:50:44.046Z,38.30
2018-03-18T06:53:12.307Z,38.30
2018-03-18T06:55:40.628Z,38.90
2018-03-18T06:58:08.890Z,38.30
2018-03-18T07:00:37.932Z,38.20
2018-03-18T07:03:06.231Z,38.20
2018-03-18T07:05:34.495Z,38.30
2018-03-18T07:08:02.846Z,38.20
2018-03-18T07:10:31.100Z,38.20
2018-03-18T07:13:02.393Z,38.10
2018-03-18T07:15:30.709Z,38.00
2018-03-18T07:17:59.100Z,38.10
2018-03-18T07:20:28.133Z,37.60
2018-03-18T07:22:56.441Z,38.10
2018-03-18T07:25:24.708Z,38.20
2018-03-18T07:27:53.061Z,38.20
2018-03-18T07:30:21.337Z,38.00
2018-03-18T07:32:49.601Z,37.90
2018-03-18T07:35:17.933Z,38.00
2018-03-18T07:37:46.193Z,38.00
2018-03-18T07:40:14.466Z,37.60
2018-03-18T07:42:42.776Z,37.70
2018-03-18T07:45:11.082Z,37.80
2018-03-18T07:47:39.395Z,37.90
2018-03-18T07:50:08.447Z,38.20
2018-03-18T07:52:36.830Z,38.20
2018-03-18T07:55:05.907Z,37.40
2018-03-18T07:57:34.177Z,37.40
2018-03-18T08:00:02.487Z,37.30
2018-03-18T08:02:31.546Z,37.30
2018-03-18T08:04:59.842Z,36.60
2018-03-18T08:07:28.177Z,37.10
2018-03-18T08:09:56.479Z,37.20
2018-03-18T08:12:24.830Z,37.10
2018-03-18T08:14:53.132Z,37.00
2018-03-18T08:17:21.397Z,37.00
2018-03-18T08:19:49.703Z,36.90
2018-03-18T08:22:20.787Z,36.70
2018-03-18T08:24:49.099Z,36.80
2018-03-18T08:27:17.388Z,36.70
2018-03-18T08:29:45.651Z,36.70
2018-03-18T08:32:13.944Z,37.00
2018-03-18T08:34:42.239Z,37.20
2018-03-18T08:37:10.558Z,37.00
2018-03-18T08:39:38.842Z,36.70
2018-03-18T08:42:07.904Z,36.30
2018-03-18T08:44:41.761Z,36.20
2018-03-18T08:47:11.588Z,36.30
2018-03-18T08:49:39.837Z,35.90
2018-03-18T08:52:08.119Z,36.00
2018-03-18T08:54:36.437Z,36.40
2018-03-18T08:57:07.821Z,36.40
2018-03-18T08:59:36.298Z,35.90
2018-03-18T09:02:06.159Z,35.80
2018-03-18T09:04:34.714Z,35.70
2018-03-18T09:07:03.056Z,36.00
2018-03-18T09:09:31.324Z,36.30
2018-03-18T09:12:00.779Z,36.40
2018-03-18T09:14:29.857Z,36.20
2018-03-18T09:17:01.724Z,36.30
2018-03-18T09:19:30.698Z,36.20
2018-03-18T09:21:59.288Z,36.50
2018-03-18T09:24:27.616Z,36.70
2018-03-18T09:26:59.740Z,36.40
2018-03-18T09:29:29.291Z,35.40
2018-03-18T09:32:00.040Z,35.70
2018-03-18T09:34:28.433Z,35.20
2018-03-18T09:36:56.778Z,35.20
2018-03-18T09:39:25.161Z,34.80
2018-03-18T09:41:53.545Z,34.90
2018-03-18T09:44:21.949Z,35.10
2018-03-18T09:46:50.707Z,35.40
2018-03-18T09:49:19.860Z,35.70
2018-03-18T09:51:48.197Z,35.80
2018-03-18T09:54:16.619Z,35.40
2018-03-18T09:56:44.951Z,35.50
2018-03-18T09:59:13.322Z,35.40
2018-03-18T10:01:41.771Z,35.20
2018-03-18T10:04:10.188Z,34.60
2018-03-18T10:06:39.476Z,34.40
2018-03-18T10:09:08.608Z,34.40
2018-03-18T10:11:36.982Z,34.60
2018-03-18T10:14:05.344Z,34.10
2018-03-18T10:16:34.522Z,33.60
2018-03-18T10:19:03.762Z,34.30
2018-03-18T10:21:32.263Z,34.30
2018-03-18T10:24:00.799Z,34.60
2018-03-18T10:26:29.986Z,33.60
2018-03-18T10:28:58.372Z,33.60
2018-03-18T10:31:27.497Z,33.80
2018-03-18T10:33:55.889Z,33.90
2018-03-18T10:36:24.237Z,34.20
2018-03-18T10:38:52.606Z,34.10
2018-03-18T10:41:21.808Z,33.80
2018-03-18T10:43:50.979Z,33.80
2018-03-18T10:46:19.402Z,33.80
2018-03-18T10:48:51.003Z,33.80
2018-03-18T10:51:19.428Z,34.20
2018-03-18T10:53:48.555Z,33.80
2018-03-18T10:56:16.951Z,33.90
2018-03-18T10:58:45.376Z,34.50
2018-03-18T11:01:20.001Z,33.70
2018-03-18T11:03:54.346Z,33.80
2018-03-18T11:06:23.011Z,33.70
2018-03-18T11:08:52.136Z,33.20
2018-03-18T11:11:20.568Z,33.20
2018-03-18T11:13:48.926Z,32.90
2018-03-18T11:16:17.402Z,32.70
2018-03-18T11:18:46.530Z,32.80
2018-03-18T11:21:16.126Z,32.80
2018-03-18T11:23:44.955Z,32.60
2018-03-18T11:26:13.307Z,32.80
2018-03-18T11:28:42.473Z,32.30
2018-03-18T11:31:10.924Z,32.90
2018-03-18T11:33:40.018Z,31.80
2018-03-18T11:36:09.171Z,31.40
2018-03-18T11:38:37.577Z,31.40
2018-03-18T11:41:05.963Z,32.00
2018-03-18T11:43:35.250Z,32.30
2018-03-18T11:46:03.554Z,32.40
2018-03-18T11:48:31.985Z,31.90
2018-03-18T11:51:00.372Z,32.00
2018-03-18T11:53:28.703Z,32.50
2018-03-18T11:55:57.162Z,32.30
2018-03-18T11:58:25.418Z,31.00
2018-03-18T12:00:53.804Z,30.80
2018-03-18T12:03:22.197Z,30.20
2018-03-18T12:05:50.600Z,29.50
2018-03-18T12:08:31.564Z,29.80
2018-03-18T12:11:00.683Z,29.40
2018-03-18T12:13:30.563Z,29.40
2018-03-18T12:16:00.870Z,28.90
2018-03-18T12:18:30.250Z,28.70
2018-03-18T12:20:58.683Z,27.90
2018-03-18T12:23:27.175Z,27.90
2018-03-18T12:25:55.608Z,27.40
2018-03-18T12:28:24.124Z,27.20
2018-03-18T12:30:52.498Z,27.60
2018-03-18T12:33:20.907Z,27.70
2018-03-18T12:35:50.205Z,26.10
2018-03-18T12:38:18.644Z,26.10
2018-03-18T12:40:50.897Z,26.10
2018-03-18T12:43:30.290Z,26.20
2018-03-18T12:45:59.490Z,23.90
2018-03-18T12:48:27.853Z,24.00
2018-03-18T12:50:56.260Z,23.00
2018-03-18T12:53:24.824Z,24.50
2018-03-18T12:55:53.349Z,24.50
2018-03-18T12:58:21.987Z,23.10
2018-03-18T13:00:50.588Z,23.00
2018-03-18T13:03:19.700Z,23.50
2018-03-18T13:05:54.788Z,23.60
2018-03-18T13:08:23.212Z,24.10
2018-03-18T13:10:52.586Z,24.20
2018-03-18T13:13:21.028Z,24.20
2018-03-18T13:15:49.460Z,23.40
2018-03-18T13:18:17.862Z,23.00
2018-03-18T13:20:47.078Z,23.40
2018-03-18T13:23:16.151Z,23.40
2018-03-18T13:25:44.807Z,23.20
2018-03-18T13:28:16.410Z,22.20
2018-03-18T13:30:44.973Z,22.30
2018-03-18T13:33:13.439Z,22.70
2018-03-18T13:35:41.807Z,23.00
2018-03-18T13:38:13.322Z,23.10
2018-03-18T13:40:41.761Z,23.40
2018-03-18T13:43:10.929Z,22.60
2018-03-18T13:45:39.309Z,22.60
2018-03-18T13:50:40.906Z,23.10
2018-03-18T13:53:10.017Z,23.00
2018-03-18T13:55:39.466Z,23.10
2018-03-18T13:58:07.915Z,23.20
2018-03-18T14:00:36.566Z,23.00
2018-03-18T14:03:04.990Z,22.90
2018-03-18T14:05:33.331Z,23.10
2018-03-18T14:08:01.694Z,23.20
2018-03-18T14:10:30.050Z,23.40
2018-03-18T14:12:58.427Z,23.90
2018-03-18T14:15:26.850Z,24.00
2018-03-18T14:17:55.241Z,23.80
2018-03-18T14:20:23.794Z,23.40
2018-03-18T14:22:53.345Z,23.40
2018-03-18T14:25:22.326Z,23.80
2018-03-18T14:27:50.765Z,24.00
2018-03-18T14:30:19.272Z,24.00
2018-03-18T14:32:47.703Z,23.80
2018-03-18T14:35:16.180Z,23.90
2018-03-18T14:37:44.572Z,23.50
2018-03-18T14:40:16.894Z,23.40
2018-03-18T14:42:46.125Z,23.50
2018-03-18T14:45:15.303Z,23.80
2018-03-18T14:47:43.720Z,23.90
2018-03-18T14:50:12.084Z,24.20
2018-03-18T14:52:42.509Z,24.50
2018-03-18T14:55:11.680Z,24.80
2018-03-18T14:57:40.053Z,24.80
2018-03-18T15:00:08.460Z,24.80
2018-03-18T15:02:36.800Z,24.70
2018-03-18T15:05:05.192Z,24.70
2018-03-18T15:07:33.633Z,24.90
2018-03-18T15:10:02.092Z,25.00
2018-03-18T15:12:30.614Z,24.90
2018-03-18T15:14:59.141Z,24.90
2018-03-18T15:17:27.552Z,24.90
2018-03-18T15:19:56.072Z,25.10
2018-03-18T15:22:24.523Z,24.80
2018-03-18T15:24:53.647Z,25.00
2018-03-18T15:27:22.213Z,25.00
2018-03-18T15:29:56.267Z,25.10
2018-03-18T15:32:24.691Z,25.20
2018-03-18T15:34:53.824Z,25.20
2018-03-18T15:37:22.156Z,25.20
2018-03-18T15:39:50.510Z,25.30
2018-03-18T15:42:18.823Z,25.30
2018-03-18T15:44:50.692Z,25.40
2018-03-18T15:47:19.025Z,25.50
2018-03-18T15:49:47.513Z,25.50
2018-03-18T15:52:16.112Z,25.70
2018-03-18T15:54:44.559Z,25.50
2018-03-18T15:57:12.975Z,25.40
2018-03-18T15:59:47.439Z,25.60
2018-03-18T16:02:16.637Z,25.60
2018-03-18T16:04:44.972Z,25.60
2018-03-18T16:07:13.578Z,25.70
2018-03-18T16:09:42.760Z,25.80
2018-03-18T16:12:11.341Z,25.80
2018-03-18T16:14:40.690Z,26.10
2018-03-18T16:17:09.091Z,26.10
2018-03-18T16:19:39.366Z,26.20
2018-03-18T16:22:09.338Z,26.00
2018-03-18T16:24:37.875Z,26.10
2018-03-18T16:27:06.303Z,26.40
2018-03-18T16:29:46.807Z,26.30
2018-03-18T16:32:16.067Z,26.20
2018-03-18T16:34:45.489Z,26.20
2018-03-18T16:37:14.906Z,26.40
2018-03-18T16:39:43.253Z,26.30
2018-03-18T16:42:11.664Z,26.30
2018-03-18T16:44:40.303Z,26.40
2018-03-18T16:47:08.746Z,26.40
2018-03-18T16:49:37.195Z,26.40
2018-03-18T16:52:05.577Z,26.60
2018-03-18T16:54:36.026Z,26.60
2018-03-18T16:57:11.233Z,26.70
2018-03-18T16:59:39.636Z,26.70
2018-03-18T17:02:08.016Z,26.70
2018-03-18T17:04:36.444Z,26.90
2018-03-18T17:07:05.935Z,26.80
2018-03-18T17:09:34.324Z,26.90
2018-03-18T17:12:02.810Z,26.80
2018-03-18T17:14:31.165Z,26.90
2018-03-18T17:17:00.665Z,27.10
2018-03-18T17:19:29.730Z,27.10
2018-03-18T17:21:59.314Z,27.20
2018-03-18T17:24:27.887Z,27.20
2018-03-18T17:26:56.357Z,27.30
2018-03-18T17:29:24.712Z,27.40
2018-03-18T17:31:53.880Z,27.50
2018-03-18T17:34:22.279Z,27.50
2018-03-18T17:36:50.629Z,27.50
2018-03-18T17:39:19.077Z,27.50
2018-03-18T17:41:47.516Z,27.50
2018-03-18T17:44:27.691Z,27.60
2018-03-18T17:47:07.776Z,27.50
2018-03-18T17:49:48.208Z,27.60
2018-03-18T17:52:29.243Z,27.70
2018-03-18T17:55:09.394Z,27.70
2018-03-18T17:57:38.512Z,27.90
2018-03-18T18:00:07.796Z,28.00
2018-03-18T18:02:40.213Z,27.90
2018-03-18T18:05:08.625Z,28.00
2018-03-18T18:07:38.218Z,28.10
2018-03-18T18:10:12.524Z,28.10
2018-03-18T18:12:52.104Z,28.10
2018-03-18T18:15:26.027Z,28.10
2018-03-18T18:17:54.621Z,28.20
2018-03-18T18:20:23.034Z,28.30
2018-03-18T18:22:56.105Z,28.20
2018-03-18T18:25:24.567Z,28.20
2018-03-18T18:27:52.982Z,28.30
2018-03-18T18:30:21.494Z,28.30
2018-03-18T18:32:50.628Z,28.50
2018-03-18T18:35:19.024Z,28.50
2018-03-18T18:37:47.560Z,28.60
2018-03-18T18:40:16.719Z,28.50
2018-03-18T18:42:45.439Z,28.50
2018-03-18T18:45:14.652Z,29.00
2018-03-18T18:47:43.242Z,28.60
2018-03-18T18:50:11.711Z,28.60
2018-03-18T18:52:40.928Z,28.70
2018-03-18T18:55:09.404Z,28.70
2018-03-18T18:57:37.855Z,28.70
2018-03-18T19:00:06.262Z,28.80
2018-03-18T19:02:34.709Z,28.80
2018-03-18T19:05:04.990Z,29.00
2018-03-18T19:07:33.728Z,28.90
2018-03-18T19:10:02.151Z,29.00
2018-03-18T19:12:30.527Z,29.00
2018-03-18T19:15:02.316Z,29.10
2018-03-18T19:17:30.837Z,29.10
2018-03-18T19:19:59.264Z,29.20
2018-03-18T19:22:27.853Z,29.20
2018-03-18T19:24:56.248Z,29.20
2018-03-18T19:27:24.661Z,29.20
2018-03-18T19:29:53.088Z,29.30
2018-03-18T19:32:22.003Z,29.30
2018-03-18T19:34:50.616Z,29.30
2018-03-18T19:37:19.631Z,29.30
2018-03-18T19:39:48.546Z,29.40
2018-03-18T19:42:17.026Z,29.50
2018-03-18T19:44:49.932Z,29.50
2018-03-18T19:47:18.554Z,29.50
2018-03-18T19:49:54.180Z,29.60
2018-03-18T19:52:22.567Z,29.50
2018-03-18T19:54:51.785Z,29.50
2018-03-18T19:57:22.014Z,29.50
2018-03-18T19:59:54.206Z,29.60
2018-03-18T20:02:22.561Z,29.50
2018-03-18T20:04:51.699Z,29.60
2018-03-18T20:07:23.329Z,29.60
2018-03-18T20:09:51.943Z,29.60
2018-03-18T20:12:20.542Z,29.70
2018-03-18T20:14:48.777Z,29.80
2018-03-18T20:17:17.849Z,29.60
2018-03-18T20:19:46.296Z,29.60
2018-03-18T20:22:14.748Z,29.60
2018-03-18T20:24:43.146Z,29.50
2018-03-18T20:27:11.569Z,29.60
2018-03-18T20:29:39.914Z,29.70
2018-03-18T20:32:08.327Z,29.70
2018-03-18T20:34:39.051Z,29.70
2018-03-18T20:37:08.224Z,29.70
2018-03-18T20:39:36.598Z,29.80
2018-03-18T20:42:04.998Z,29.80
2018-03-18T20:44:34.261Z,30.10
2018-03-18T20:47:02.632Z,29.70
2018-03-18T20:49:31.007Z,29.80
2018-03-18T20:51:59.339Z,29.80
2018-03-18T20:54:27.640Z,29.80
2018-03-18T20:56:56.547Z,29.90
2018-03-18T20:59:25.762Z,29.90
2018-03-18T21:01:54.884Z,29.90
2018-03-18T21:04:23.195Z,29.90
2018-03-18T21:06:51.604Z,29.90
2018-03-18T21:09:21.613Z,29.90
2018-03-18T21:11:49.978Z,29.90
2018-03-18T21:14:18.396Z,30.00
2018-03-18T21:16:46.700Z,30.00
2018-03-18T21:19:14.967Z,30.00
2018-03-18T21:21:43.484Z,30.00
2018-03-18T21:24:12.051Z,30.00
2018-03-18T21:26:40.535Z,30.00
2018-03-18T21:29:09.251Z,30.10
2018-03-18T21:31:37.567Z,30.10
2018-03-18T21:34:05.949Z,30.20
2018-03-18T21:36:34.228Z,30.10
2018-03-18T21:39:02.594Z,30.20
2018-03-18T21:41:31.437Z,30.20
2018-03-18T21:43:59.754Z,30.20
2018-03-18T21:46:28.102Z,30.20
2018-03-18T21:48:57.010Z,30.20
2018-03-18T21:51:25.290Z,30.30
2018-03-18T21:53:53.671Z,30.30
2018-03-18T21:56:21.974Z,30.40
2018-03-18T21:58:51.223Z,30.30
2018-03-18T22:01:19.502Z,30.40
2018-03-18T22:03:47.787Z,30.40
2018-03-18T22:06:16.099Z,30.50
2018-03-18T22:08:44.420Z,30.50
2018-03-18T22:11:12.747Z,30.50
2018-03-18T22:13:41.038Z,30.50
2018-03-18T22:16:09.321Z,30.60
2018-03-18T22:18:37.627Z,30.50
2018-03-18T22:21:05.981Z,30.50
2018-03-18T22:23:34.379Z,30.60
2018-03-18T22:26:02.660Z,30.60
2018-03-18T22:28:31.714Z,30.70
2018-03-18T22:31:00.046Z,30.70
2018-03-18T22:33:28.326Z,30.70
2018-03-18T22:35:56.668Z,30.70
2018-03-18T22:38:24.940Z,30.80
2018-03-18T22:40:54.112Z,30.80
2018-03-18T22:43:22.430Z,30.80
2018-03-18T22:45:50.722Z,30.80
2018-03-18T22:48:19.845Z,30.90
2018-03-18T22:50:48.127Z,30.90
2018-03-18T22:53:16.424Z,31.00
2018-03-18T22:55:44.739Z,31.00
2018-03-18T22:58:13.022Z,31.00
2018-03-18T23:00:44.675Z,31.00
2018-03-18T23:03:13.143Z,31.00
2018-03-18T23:05:41.430Z,31.10
2018-03-18T23:08:09.741Z,31.00
2018-03-18T23:10:38.037Z,31.10
2018-03-18T23:13:06.320Z,31.10
2018-03-18T23:15:34.649Z,31.10
2018-03-18T23:18:02.927Z,31.10
2018-03-18T23:20:31.190Z,31.10
2018-03-18T23:22:59.551Z,31.10
2018-03-18T23:25:27.845Z,31.10
2018-03-18T23:27:56.088Z,31.10
2018-03-18T23:30:24.423Z,31.10
2018-03-18T23:32:52.694Z,31.10
2018-03-18T23:35:21.007Z,31.10
2018-03-18T23:37:49.305Z,31.20
2018-03-18T23:40:17.582Z,31.10
2018-03-18T23:42:45.904Z,31.10
2018-03-18T23:45:14.306Z,31.10
2018-03-18T23:47:42.627Z,31.10
2018-03-18T23:50:10.953Z,31.10
2018-03-18T23:52:39.243Z,31.10
2018-03-18T23:55:08.302Z,31.10
2018-03-18T23:57:36.582Z,31.00
